sensor_id;sensor_type;location;lat;lon;timestamp;P1;durP1;ratioP1;P2;durP2;ratioP2
2558;SDS011;1289;53.488;10.006;2023-02-26T00:00:50;5.40;;;4.00;;
2558;SDS011;1289;53.488;10.006;2023-02-26T00:03:17;4.90;;;3.63;;
2558;SDS011;1289;53.488;10.006;2023-02-26T00:05:44;3.83;;;3.57;;
2558;SDS011;1289;53.488;10.006;2023-02-26T00:08:10;4.57;;;4.17;;
2558;SDS011;1289;53.488;10.006;2023-02-26T00:10:37;5.50;;;4.33;;
2558;SDS011;1289;53.488;10.006;2023-02-26T00:13:04;4.73;;;3.67;;
2558;SDS011;1289;53.488;10.006;2023-02-26T00:15:31;5.17;;;4.63;;
2558;SDS011;1289;53.488;10.006;2023-02-26T00:18:01;4.23;;;3.83;;
2558;SDS011;1289;53.488;10.006;2023-02-26T00:20:31;5.50;;;4.10;;
2558;SDS011;1289;53.488;10.006;2023-02-26T00:22:58;4.23;;;3.67;;
2558;SDS011;1289;53.488;10.006;2023-02-26T00:25:25;6.70;;;3.63;;
2558;SDS011;1289;53.488;10.006;2023-02-26T00:27:52;3.87;;;3.60;;
2558;SDS011;1289;53.488;10.006;2023-02-26T00:30:19;8.90;;;4.07;;
2558;SDS011;1289;53.488;10.006;2023-02-26T00:32:47;3.60;;;3.30;;
2558;SDS011;1289;53.488;10.006;2023-02-26T00:35:15;3.80;;;3.50;;
2558;SDS011;1289;53.488;10.006;2023-02-26T00:40:33;3.73;;;3.43;;
2558;SDS011;1289;53.488;10.006;2023-02-26T00:43:02;4.00;;;3.70;;
2558;SDS011;1289;53.488;10.006;2023-02-26T00:45:30;5.60;;;3.67;;
2558;SDS011;1289;53.488;10.006;2023-02-26T00:48:04;3.70;;;3.40;;
2558;SDS011;1289;53.488;10.006;2023-02-26T00:50:44;4.40;;;4.00;;
2558;SDS011;1289;53.488;10.006;2023-02-26T00:53:15;3.73;;;3.53;;
2558;SDS011;1289;53.488;10.006;2023-02-26T00:55:45;3.73;;;3.53;;
2558;SDS011;1289;53.488;10.006;2023-02-26T00:58:11;5.27;;;3.50;;
2558;SDS011;1289;53.488;10.006;2023-02-26T01:00:38;3.67;;;3.43;;
2558;SDS011;1289;53.488;10.006;2023-02-26T01:03:05;4.87;;;4.47;;
2558;SDS011;1289;53.488;10.006;2023-02-26T01:05:32;7.50;;;3.43;;
2558;SDS011;1289;53.488;10.006;2023-02-26T01:08:01;3.63;;;3.33;;
2558;SDS011;1289;53.488;10.006;2023-02-26T01:10:31;4.27;;;3.90;;
2558;SDS011;1289;53.488;10.006;2023-02-26T01:12:58;3.40;;;3.20;;
2558;SDS011;1289;53.488;10.006;2023-02-26T01:15:26;5.00;;;3.90;;
2558;SDS011;1289;53.488;10.006;2023-02-26T01:17:54;3.47;;;3.27;;
2558;SDS011;1289;53.488;10.006;2023-02-26T01:20:24;7.63;;;3.73;;
2558;SDS011;1289;53.488;10.006;2023-02-26T01:22:54;8.87;;;3.90;;
2558;SDS011;1289;53.488;10.006;2023-02-26T01:25:26;6.10;;;3.53;;
2558;SDS011;1289;53.488;10.006;2023-02-26T01:27:54;4.20;;;3.80;;
2558;SDS011;1289;53.488;10.006;2023-02-26T01:30:22;4.53;;;3.90;;
2558;SDS011;1289;53.488;10.006;2023-02-26T01:32:52;4.00;;;3.40;;
2558;SDS011;1289;53.488;10.006;2023-02-26T01:35:28;5.33;;;3.53;;
2558;SDS011;1289;53.488;10.006;2023-02-26T01:38:03;3.70;;;3.50;;
2558;SDS011;1289;53.488;10.006;2023-02-26T01:40:41;5.47;;;3.63;;
2558;SDS011;1289;53.488;10.006;2023-02-26T01:43:21;3.70;;;3.40;;
2558;SDS011;1289;53.488;10.006;2023-02-26T01:45:54;4.57;;;3.60;;
2558;SDS011;1289;53.488;10.006;2023-02-26T01:48:30;3.63;;;3.33;;
2558;SDS011;1289;53.488;10.006;2023-02-26T01:50:59;4.20;;;3.80;;
2558;SDS011;1289;53.488;10.006;2023-02-26T01:53:26;3.50;;;3.20;;
2558;SDS011;1289;53.488;10.006;2023-02-26T01:55:55;4.27;;;3.20;;
2558;SDS011;1289;53.488;10.006;2023-02-26T01:58:23;4.60;;;3.40;;
2558;SDS011;1289;53.488;10.006;2023-02-26T02:00:51;4.47;;;3.50;;
2558;SDS011;1289;53.488;10.006;2023-02-26T02:03:18;3.90;;;3.50;;
2558;SDS011;1289;53.488;10.006;2023-02-26T02:05:46;5.13;;;4.63;;
2558;SDS011;1289;53.488;10.006;2023-02-26T02:08:14;3.83;;;3.03;;
2558;SDS011;1289;53.488;10.006;2023-02-26T02:10:41;3.53;;;3.23;;
2558;SDS011;1289;53.488;10.006;2023-02-26T02:13:13;3.30;;;3.10;;
2558;SDS011;1289;53.488;10.006;2023-02-26T02:15:47;3.40;;;3.10;;
2558;SDS011;1289;53.488;10.006;2023-02-26T02:18:19;3.10;;;2.90;;
2558;SDS011;1289;53.488;10.006;2023-02-26T02:20:59;4.03;;;3.40;;
2558;SDS011;1289;53.488;10.006;2023-02-26T02:23:36;4.07;;;3.30;;
2558;SDS011;1289;53.488;10.006;2023-02-26T02:32:04;3.13;;;2.83;;
2558;SDS011;1289;53.488;10.006;2023-02-26T02:34:32;3.30;;;3.10;;
2558;SDS011;1289;53.488;10.006;2023-02-26T02:37:03;3.80;;;3.50;;
2558;SDS011;1289;53.488;10.006;2023-02-26T02:39:32;3.40;;;3.20;;
2558;SDS011;1289;53.488;10.006;2023-02-26T02:42:03;4.00;;;3.63;;
2558;SDS011;1289;53.488;10.006;2023-02-26T02:44:34;4.10;;;3.17;;
2558;SDS011;1289;53.488;10.006;2023-02-26T02:47:06;4.37;;;3.50;;
2558;SDS011;1289;53.488;10.006;2023-02-26T02:49:36;4.83;;;3.40;;
2558;SDS011;1289;53.488;10.006;2023-02-26T02:52:06;3.13;;;2.93;;
2558;SDS011;1289;53.488;10.006;2023-02-26T02:54:37;3.13;;;2.93;;
2558;SDS011;1289;53.488;10.006;2023-02-26T02:57:08;3.83;;;3.43;;
2558;SDS011;1289;53.488;10.006;2023-02-26T02:59:38;3.70;;;3.40;;
2558;SDS011;1289;53.488;10.006;2023-02-26T03:02:10;3.97;;;3.50;;
2558;SDS011;1289;53.488;10.006;2023-02-26T03:04:43;4.13;;;3.73;;
2558;SDS011;1289;53.488;10.006;2023-02-26T03:07:10;4.23;;;3.87;;
2558;SDS011;1289;53.488;10.006;2023-02-26T03:09:37;6.50;;;3.93;;
2558;SDS011;1289;53.488;10.006;2023-02-26T03:12:03;5.33;;;3.53;;
2558;SDS011;1289;53.488;10.006;2023-02-26T03:14:31;3.83;;;3.53;;
2558;SDS011;1289;53.488;10.006;2023-02-26T03:17:01;4.23;;;3.80;;
2558;SDS011;1289;53.488;10.006;2023-02-26T03:19:44;3.50;;;3.30;;
2558;SDS011;1289;53.488;10.006;2023-02-26T03:22:23;4.10;;;3.70;;
2558;SDS011;1289;53.488;10.006;2023-02-26T03:24:59;3.67;;;3.37;;
2558;SDS011;1289;53.488;10.006;2023-02-26T03:27:30;4.07;;;3.77;;
2558;SDS011;1289;53.488;10.006;2023-02-26T03:30:01;4.33;;;3.23;;
2558;SDS011;1289;53.488;10.006;2023-02-26T03:32:40;4.87;;;3.90;;
2558;SDS011;1289;53.488;10.006;2023-02-26T03:35:10;4.07;;;3.67;;
2558;SDS011;1289;53.488;10.006;2023-02-26T03:37:40;3.60;;;3.40;;
2558;SDS011;1289;53.488;10.006;2023-02-26T03:40:10;4.77;;;3.80;;
2558;SDS011;1289;53.488;10.006;2023-02-26T03:42:42;3.67;;;3.37;;
2558;SDS011;1289;53.488;10.006;2023-02-26T03:45:11;3.67;;;3.37;;
2558;SDS011;1289;53.488;10.006;2023-02-26T03:47:41;10.83;;;3.57;;
2558;SDS011;1289;53.488;10.006;2023-02-26T03:50:12;4.40;;;4.07;;
2558;SDS011;1289;53.488;10.006;2023-02-26T03:53:01;4.93;;;3.87;;
2558;SDS011;1289;53.488;10.006;2023-02-26T03:55:38;4.17;;;3.87;;
2558;SDS011;1289;53.488;10.006;2023-02-26T03:58:27;4.07;;;3.67;;
2558;SDS011;1289;53.488;10.006;2023-02-26T04:01:30;4.00;;;3.70;;
2558;SDS011;1289;53.488;10.006;2023-02-26T04:04:01;5.23;;;3.77;;
2558;SDS011;1289;53.488;10.006;2023-02-26T04:06:30;4.40;;;3.80;;
2558;SDS011;1289;53.488;10.006;2023-02-26T04:08:56;3.83;;;3.40;;
2558;SDS011;1289;53.488;10.006;2023-02-26T04:11:23;5.43;;;3.60;;
2558;SDS011;1289;53.488;10.006;2023-02-26T04:13:50;4.20;;;3.80;;
2558;SDS011;1289;53.488;10.006;2023-02-26T04:16:17;3.57;;;3.20;;
2558;SDS011;1289;53.488;10.006;2023-02-26T04:18:44;3.80;;;3.50;;
2558;SDS011;1289;53.488;10.006;2023-02-26T04:21:12;3.50;;;3.30;;
2558;SDS011;1289;53.488;10.006;2023-02-26T04:23:41;4.17;;;3.67;;
2558;SDS011;1289;53.488;10.006;2023-02-26T04:26:08;8.83;;;4.03;;
2558;SDS011;1289;53.488;10.006;2023-02-26T04:28:38;4.07;;;3.73;;
2558;SDS011;1289;53.488;10.006;2023-02-26T04:31:05;3.73;;;3.37;;
2558;SDS011;1289;53.488;10.006;2023-02-26T04:33:32;3.60;;;3.30;;
2558;SDS011;1289;53.488;10.006;2023-02-26T04:35:59;4.23;;;3.40;;
2558;SDS011;1289;53.488;10.006;2023-02-26T04:38:27;4.03;;;3.60;;
2558;SDS011;1289;53.488;10.006;2023-02-26T04:40:54;3.63;;;3.43;;
2558;SDS011;1289;53.488;10.006;2023-02-26T04:43:21;4.10;;;3.60;;
2558;SDS011;1289;53.488;10.006;2023-02-26T04:46:08;3.90;;;3.53;;
2558;SDS011;1289;53.488;10.006;2023-02-26T04:48:35;4.40;;;3.53;;
2558;SDS011;1289;53.488;10.006;2023-02-26T04:51:01;4.50;;;3.30;;
2558;SDS011;1289;53.488;10.006;2023-02-26T04:53:29;7.13;;;3.70;;
2558;SDS011;1289;53.488;10.006;2023-02-26T04:55:56;4.67;;;3.23;;
2558;SDS011;1289;53.488;10.006;2023-02-26T04:58:23;7.27;;;3.80;;
2558;SDS011;1289;53.488;10.006;2023-02-26T05:00:50;3.30;;;3.10;;
2558;SDS011;1289;53.488;10.006;2023-02-26T05:03:19;3.47;;;3.27;;
2558;SDS011;1289;53.488;10.006;2023-02-26T05:05:46;4.47;;;3.53;;
2558;SDS011;1289;53.488;10.006;2023-02-26T05:08:13;4.10;;;3.80;;
2558;SDS011;1289;53.488;10.006;2023-02-26T05:10:41;4.13;;;3.57;;
2558;SDS011;1289;53.488;10.006;2023-02-26T05:13:08;3.80;;;3.50;;
2558;SDS011;1289;53.488;10.006;2023-02-26T05:15:34;4.27;;;3.13;;
2558;SDS011;1289;53.488;10.006;2023-02-26T05:18:01;3.50;;;3.30;;
2558;SDS011;1289;53.488;10.006;2023-02-26T05:20:28;3.80;;;3.60;;
2558;SDS011;1289;53.488;10.006;2023-02-26T05:22:54;3.57;;;3.30;;
2558;SDS011;1289;53.488;10.006;2023-02-26T05:25:21;3.30;;;3.10;;
2558;SDS011;1289;53.488;10.006;2023-02-26T05:27:49;3.87;;;3.57;;
2558;SDS011;1289;53.488;10.006;2023-02-26T05:30:16;4.23;;;3.43;;
2558;SDS011;1289;53.488;10.006;2023-02-26T05:32:43;9.73;;;4.03;;
2558;SDS011;1289;53.488;10.006;2023-02-26T05:35:10;4.87;;;3.97;;
2558;SDS011;1289;53.488;10.006;2023-02-26T05:37:37;4.50;;;4.03;;
2558;SDS011;1289;53.488;10.006;2023-02-26T05:40:05;3.80;;;3.50;;
2558;SDS011;1289;53.488;10.006;2023-02-26T05:42:34;5.07;;;4.17;;
2558;SDS011;1289;53.488;10.006;2023-02-26T05:45:03;4.50;;;3.63;;
2558;SDS011;1289;53.488;10.006;2023-02-26T05:47:30;3.63;;;3.43;;
2558;SDS011;1289;53.488;10.006;2023-02-26T05:49:57;4.40;;;3.90;;
2558;SDS011;1289;53.488;10.006;2023-02-26T05:52:24;5.43;;;4.93;;
2558;SDS011;1289;53.488;10.006;2023-02-26T05:54:50;4.13;;;3.60;;
2558;SDS011;1289;53.488;10.006;2023-02-26T05:57:17;4.20;;;3.77;;
2558;SDS011;1289;53.488;10.006;2023-02-26T05:59:43;5.07;;;3.60;;
2558;SDS011;1289;53.488;10.006;2023-02-26T06:02:11;3.60;;;3.40;;
2558;SDS011;1289;53.488;10.006;2023-02-26T06:04:38;4.40;;;4.00;;
2558;SDS011;1289;53.488;10.006;2023-02-26T06:07:05;5.43;;;3.43;;
2558;SDS011;1289;53.488;10.006;2023-02-26T06:09:31;3.60;;;3.30;;
2558;SDS011;1289;53.488;10.006;2023-02-26T06:11:58;5.63;;;3.87;;
2558;SDS011;1289;53.488;10.006;2023-02-26T06:14:24;3.47;;;3.27;;
2558;SDS011;1289;53.488;10.006;2023-02-26T06:16:51;3.67;;;3.37;;
2558;SDS011;1289;53.488;10.006;2023-02-26T06:19:19;3.90;;;3.63;;
2558;SDS011;1289;53.488;10.006;2023-02-26T06:21:45;4.43;;;3.60;;
2558;SDS011;1289;53.488;10.006;2023-02-26T06:24:12;4.70;;;4.20;;
2558;SDS011;1289;53.488;10.006;2023-02-26T06:26:39;7.73;;;3.47;;
2558;SDS011;1289;53.488;10.006;2023-02-26T06:29:05;3.30;;;3.10;;
2558;SDS011;1289;53.488;10.006;2023-02-26T06:31:32;3.47;;;3.27;;
2558;SDS011;1289;53.488;10.006;2023-02-26T06:33:59;3.63;;;3.43;;
2558;SDS011;1289;53.488;10.006;2023-02-26T06:36:27;3.80;;;3.50;;
2558;SDS011;1289;53.488;10.006;2023-02-26T06:38:54;4.70;;;3.70;;
2558;SDS011;1289;53.488;10.006;2023-02-26T06:41:24;3.90;;;3.47;;
2558;SDS011;1289;53.488;10.006;2023-02-26T06:43:51;3.50;;;3.20;;
2558;SDS011;1289;53.488;10.006;2023-02-26T06:46:17;6.57;;;3.50;;
2558;SDS011;1289;53.488;10.006;2023-02-26T06:48:44;3.97;;;3.60;;
2558;SDS011;1289;53.488;10.006;2023-02-26T06:51:10;4.80;;;4.07;;
2558;SDS011;1289;53.488;10.006;2023-02-26T06:53:38;3.60;;;3.30;;
2558;SDS011;1289;53.488;10.006;2023-02-26T06:56:05;3.87;;;3.40;;
2558;SDS011;1289;53.488;10.006;2023-02-26T06:58:32;6.60;;;3.57;;
2558;SDS011;1289;53.488;10.006;2023-02-26T07:00:59;5.63;;;5.23;;
2558;SDS011;1289;53.488;10.006;2023-02-26T07:03:25;3.60;;;3.40;;
2558;SDS011;1289;53.488;10.006;2023-02-26T07:05:52;4.40;;;3.80;;
2558;SDS011;1289;53.488;10.006;2023-02-26T07:08:18;4.60;;;3.80;;
2558;SDS011;1289;53.488;10.006;2023-02-26T07:10:47;5.20;;;3.20;;
2558;SDS011;1289;53.488;10.006;2023-02-26T07:13:13;3.47;;;3.27;;
2558;SDS011;1289;53.488;10.006;2023-02-26T07:15:40;3.50;;;3.20;;
2558;SDS011;1289;53.488;10.006;2023-02-26T07:18:07;4.03;;;3.73;;
2558;SDS011;1289;53.488;10.006;2023-02-26T07:20:33;3.53;;;3.23;;
2558;SDS011;1289;53.488;10.006;2023-02-26T07:23:00;10.83;;;3.10;;
2558;SDS011;1289;53.488;10.006;2023-02-26T07:25:27;6.23;;;3.83;;
2558;SDS011;1289;53.488;10.006;2023-02-26T07:27:55;3.53;;;3.33;;
2558;SDS011;1289;53.488;10.006;2023-02-26T07:30:24;3.50;;;3.30;;
2558;SDS011;1289;53.488;10.006;2023-02-26T07:32:51;3.50;;;3.20;;
2558;SDS011;1289;53.488;10.006;2023-02-26T07:35:17;3.83;;;3.53;;
2558;SDS011;1289;53.488;10.006;2023-02-26T07:37:44;4.03;;;3.73;;
2558;SDS011;1289;53.488;10.006;2023-02-26T07:40:11;4.77;;;3.30;;
2558;SDS011;1289;53.488;10.006;2023-02-26T07:42:38;5.40;;;5.00;;
2558;SDS011;1289;53.488;10.006;2023-02-26T07:45:06;3.83;;;3.17;;
2558;SDS011;1289;53.488;10.006;2023-02-26T07:47:33;3.57;;;3.27;;
2558;SDS011;1289;53.488;10.006;2023-02-26T07:50:00;4.73;;;4.27;;
2558;SDS011;1289;53.488;10.006;2023-02-26T07:52:27;4.30;;;3.40;;
2558;SDS011;1289;53.488;10.006;2023-02-26T07:54:53;3.97;;;3.57;;
2558;SDS011;1289;53.488;10.006;2023-02-26T07:57:20;4.13;;;3.43;;
2558;SDS011;1289;53.488;10.006;2023-02-26T07:59:47;3.67;;;3.07;;
2558;SDS011;1289;53.488;10.006;2023-02-26T08:02:15;3.47;;;3.17;;
2558;SDS011;1289;53.488;10.006;2023-02-26T08:04:42;8.53;;;3.90;;
2558;SDS011;1289;53.488;10.006;2023-02-26T08:07:08;6.00;;;3.40;;
2558;SDS011;1289;53.488;10.006;2023-02-26T08:09:35;3.70;;;3.40;;
2558;SDS011;1289;53.488;10.006;2023-02-26T08:12:02;4.50;;;3.50;;
2558;SDS011;1289;53.488;10.006;2023-02-26T08:14:28;4.87;;;3.37;;
2558;SDS011;1289;53.488;10.006;2023-02-26T08:16:55;4.17;;;3.67;;
2558;SDS011;1289;53.488;10.006;2023-02-26T08:19:23;3.83;;;3.40;;
2558;SDS011;1289;53.488;10.006;2023-02-26T08:21:51;6.10;;;3.50;;
2558;SDS011;1289;53.488;10.006;2023-02-26T08:24:19;3.77;;;3.47;;
2558;SDS011;1289;53.488;10.006;2023-02-26T08:26:46;3.53;;;3.23;;
2558;SDS011;1289;53.488;10.006;2023-02-26T08:29:12;5.03;;;3.70;;
2558;SDS011;1289;53.488;10.006;2023-02-26T08:31:39;5.07;;;3.37;;
2558;SDS011;1289;53.488;10.006;2023-02-26T08:34:06;3.40;;;3.10;;
2558;SDS011;1289;53.488;10.006;2023-02-26T08:36:34;4.47;;;3.10;;
2558;SDS011;1289;53.488;10.006;2023-02-26T08:39:01;5.70;;;3.00;;
2558;SDS011;1289;53.488;10.006;2023-02-26T08:41:28;4.40;;;4.00;;
2558;SDS011;1289;53.488;10.006;2023-02-26T08:43:56;3.30;;;3.10;;
2558;SDS011;1289;53.488;10.006;2023-02-26T08:46:23;3.50;;;3.20;;
2558;SDS011;1289;53.488;10.006;2023-02-26T08:48:49;5.10;;;3.67;;
2558;SDS011;1289;53.488;10.006;2023-02-26T08:51:17;3.57;;;2.93;;
2558;SDS011;1289;53.488;10.006;2023-02-26T08:53:45;4.53;;;3.60;;
2558;SDS011;1289;53.488;10.006;2023-02-26T08:56:14;9.43;;;4.03;;
2558;SDS011;1289;53.488;10.006;2023-02-26T08:58:40;4.20;;;3.80;;
2558;SDS011;1289;53.488;10.006;2023-02-26T09:01:07;5.10;;;3.57;;
2558;SDS011;1289;53.488;10.006;2023-02-26T09:03:33;5.60;;;3.43;;
2558;SDS011;1289;53.488;10.006;2023-02-26T09:06:00;4.70;;;3.13;;
2558;SDS011;1289;53.488;10.006;2023-02-26T09:08:28;4.27;;;3.00;;
2558;SDS011;1289;53.488;10.006;2023-02-26T09:10:59;4.37;;;3.93;;
2558;SDS011;1289;53.488;10.006;2023-02-26T09:13:26;3.33;;;2.90;;
2558;SDS011;1289;53.488;10.006;2023-02-26T09:15:53;7.87;;;3.30;;
2558;SDS011;1289;53.488;10.006;2023-02-26T09:18:20;6.07;;;2.90;;
2558;SDS011;1289;53.488;10.006;2023-02-26T09:20:47;3.63;;;3.30;;
2558;SDS011;1289;53.488;10.006;2023-02-26T09:23:13;3.63;;;3.37;;
2558;SDS011;1289;53.488;10.006;2023-02-26T09:25:40;3.50;;;3.20;;
2558;SDS011;1289;53.488;10.006;2023-02-26T09:28:08;5.70;;;3.07;;
2558;SDS011;1289;53.488;10.006;2023-02-26T09:30:34;3.80;;;2.80;;
2558;SDS011;1289;53.488;10.006;2023-02-26T09:33:01;3.03;;;2.73;;
2558;SDS011;1289;53.488;10.006;2023-02-26T09:35:28;3.30;;;2.97;;
2558;SDS011;1289;53.488;10.006;2023-02-26T09:37:54;3.40;;;3.00;;
2558;SDS011;1289;53.488;10.006;2023-02-26T09:40:23;3.13;;;2.83;;
2558;SDS011;1289;53.488;10.006;2023-02-26T09:43:01;2.87;;;2.60;;
2558;SDS011;1289;53.488;10.006;2023-02-26T09:45:37;3.10;;;2.90;;
2558;SDS011;1289;53.488;10.006;2023-02-26T09:48:05;2.70;;;2.40;;
2558;SDS011;1289;53.488;10.006;2023-02-26T09:50:36;2.90;;;2.60;;
2558;SDS011;1289;53.488;10.006;2023-02-26T09:53:06;3.10;;;2.80;;
2558;SDS011;1289;53.488;10.006;2023-02-26T09:55:39;2.63;;;2.43;;
2558;SDS011;1289;53.488;10.006;2023-02-26T09:58:12;2.57;;;2.37;;
2558;SDS011;1289;53.488;10.006;2023-02-26T10:00:45;3.20;;;2.90;;
2558;SDS011;1289;53.488;10.006;2023-02-26T10:03:16;2.87;;;2.60;;
2558;SDS011;1289;53.488;10.006;2023-02-26T10:05:51;3.70;;;2.30;;
2558;SDS011;1289;53.488;10.006;2023-02-26T10:08:29;2.40;;;2.20;;
2558;SDS011;1289;53.488;10.006;2023-02-26T10:11:00;3.03;;;2.77;;
2558;SDS011;1289;53.488;10.006;2023-02-26T10:13:30;2.60;;;2.40;;
2558;SDS011;1289;53.488;10.006;2023-02-26T10:16:03;3.50;;;2.40;;
2558;SDS011;1289;53.488;10.006;2023-02-26T10:18:33;2.10;;;1.90;;
2558;SDS011;1289;53.488;10.006;2023-02-26T10:21:03;2.47;;;2.17;;
2558;SDS011;1289;53.488;10.006;2023-02-26T10:23:35;2.40;;;2.20;;
2558;SDS011;1289;53.488;10.006;2023-02-26T10:26:06;3.50;;;2.07;;
2558;SDS011;1289;53.488;10.006;2023-02-26T10:28:43;3.43;;;2.53;;
2558;SDS011;1289;53.488;10.006;2023-02-26T10:31:17;4.57;;;2.43;;
2558;SDS011;1289;53.488;10.006;2023-02-26T10:33:49;2.53;;;2.30;;
2558;SDS011;1289;53.488;10.006;2023-02-26T10:36:23;5.50;;;3.90;;
2558;SDS011;1289;53.488;10.006;2023-02-26T10:38:53;3.40;;;3.07;;
2558;SDS011;1289;53.488;10.006;2023-02-26T10:41:24;3.30;;;2.97;;
2558;SDS011;1289;53.488;10.006;2023-02-26T10:43:55;4.77;;;3.40;;
2558;SDS011;1289;53.488;10.006;2023-02-26T10:46:27;4.10;;;2.90;;
2558;SDS011;1289;53.488;10.006;2023-02-26T10:49:15;5.47;;;4.43;;
2558;SDS011;1289;53.488;10.006;2023-02-26T10:51:48;3.07;;;2.67;;
2558;SDS011;1289;53.488;10.006;2023-02-26T10:54:23;2.20;;;2.00;;
2558;SDS011;1289;53.488;10.006;2023-02-26T10:56:52;2.40;;;2.20;;
2558;SDS011;1289;53.488;10.006;2023-02-26T10:59:20;2.40;;;2.20;;
2558;SDS011;1289;53.488;10.006;2023-02-26T11:01:46;2.30;;;2.10;;
2558;SDS011;1289;53.488;10.006;2023-02-26T11:04:14;2.93;;;2.30;;
2558;SDS011;1289;53.488;10.006;2023-02-26T11:06:44;3.13;;;2.83;;
2558;SDS011;1289;53.488;10.006;2023-02-26T11:09:15;3.97;;;2.57;;
2558;SDS011;1289;53.488;10.006;2023-02-26T11:11:45;2.10;;;1.90;;
2558;SDS011;1289;53.488;10.006;2023-02-26T11:14:14;5.90;;;2.47;;
2558;SDS011;1289;53.488;10.006;2023-02-26T11:16:44;2.97;;;2.37;;
2558;SDS011;1289;53.488;10.006;2023-02-26T11:19:13;2.60;;;2.40;;
2558;SDS011;1289;53.488;10.006;2023-02-26T11:21:42;2.97;;;2.67;;
2558;SDS011;1289;53.488;10.006;2023-02-26T11:24:11;3.20;;;2.90;;
2558;SDS011;1289;53.488;10.006;2023-02-26T11:26:41;3.17;;;2.53;;
2558;SDS011;1289;53.488;10.006;2023-02-26T11:29:12;2.83;;;2.53;;
2558;SDS011;1289;53.488;10.006;2023-02-26T11:31:40;2.73;;;2.33;;
2558;SDS011;1289;53.488;10.006;2023-02-26T11:34:10;2.50;;;2.30;;
2558;SDS011;1289;53.488;10.006;2023-02-26T11:36:38;1.90;;;1.80;;
2558;SDS011;1289;53.488;10.006;2023-02-26T11:39:06;2.87;;;2.50;;
2558;SDS011;1289;53.488;10.006;2023-02-26T11:41:35;2.60;;;2.33;;
2558;SDS011;1289;53.488;10.006;2023-02-26T11:44:04;2.30;;;2.10;;
2558;SDS011;1289;53.488;10.006;2023-02-26T11:46:33;2.30;;;2.10;;
2558;SDS011;1289;53.488;10.006;2023-02-26T11:49:07;2.37;;;2.17;;
2558;SDS011;1289;53.488;10.006;2023-02-26T11:51:37;2.53;;;2.30;;
2558;SDS011;1289;53.488;10.006;2023-02-26T11:54:19;2.50;;;2.03;;
2558;SDS011;1289;53.488;10.006;2023-02-26T11:56:46;3.20;;;2.20;;
2558;SDS011;1289;53.488;10.006;2023-02-26T11:59:15;2.90;;;2.53;;
2558;SDS011;1289;53.488;10.006;2023-02-26T12:01:42;3.97;;;2.50;;
2558;SDS011;1289;53.488;10.006;2023-02-26T12:04:11;2.63;;;2.43;;
2558;SDS011;1289;53.488;10.006;2023-02-26T12:06:39;3.17;;;2.40;;
2558;SDS011;1289;53.488;10.006;2023-02-26T12:09:08;4.27;;;2.40;;
2558;SDS011;1289;53.488;10.006;2023-02-26T12:11:45;3.87;;;2.10;;
2558;SDS011;1289;53.488;10.006;2023-02-26T12:14:22;2.53;;;2.33;;
2558;SDS011;1289;53.488;10.006;2023-02-26T12:17:10;2.63;;;2.43;;
2558;SDS011;1289;53.488;10.006;2023-02-26T12:19:50;3.93;;;3.47;;
2558;SDS011;1289;53.488;10.006;2023-02-26T12:22:26;3.33;;;3.03;;
2558;SDS011;1289;53.488;10.006;2023-02-26T12:28:00;31.97;;;3.07;;
2558;SDS011;1289;53.488;10.006;2023-02-26T12:30:49;3.10;;;2.90;;
2558;SDS011;1289;53.488;10.006;2023-02-26T12:33:27;3.00;;;2.80;;
2558;SDS011;1289;53.488;10.006;2023-02-26T12:36:03;3.33;;;3.03;;
2558;SDS011;1289;53.488;10.006;2023-02-26T12:38:43;4.17;;;2.90;;
2558;SDS011;1289;53.488;10.006;2023-02-26T12:44:15;3.63;;;3.33;;
2558;SDS011;1289;53.488;10.006;2023-02-26T12:46:49;5.70;;;3.20;;
2558;SDS011;1289;53.488;10.006;2023-02-26T12:49:26;4.50;;;3.03;;
2558;SDS011;1289;53.488;10.006;2023-02-26T12:52:10;3.47;;;3.00;;
2558;SDS011;1289;53.488;10.006;2023-02-26T12:54:58;2.90;;;2.70;;
2558;SDS011;1289;53.488;10.006;2023-02-26T13:00:45;3.50;;;3.00;;
2558;SDS011;1289;53.488;10.006;2023-02-26T13:03:46;4.57;;;3.30;;
2558;SDS011;1289;53.488;10.006;2023-02-26T13:09:22;2.90;;;2.53;;
2558;SDS011;1289;53.488;10.006;2023-02-26T13:11:59;3.70;;;2.80;;
2558;SDS011;1289;53.488;10.006;2023-02-26T13:14:36;3.40;;;2.90;;
2558;SDS011;1289;53.488;10.006;2023-02-26T13:17:12;3.27;;;2.90;;
2558;SDS011;1289;53.488;10.006;2023-02-26T13:19:43;4.53;;;3.00;;
2558;SDS011;1289;53.488;10.006;2023-02-26T13:22:14;3.23;;;2.93;;
2558;SDS011;1289;53.488;10.006;2023-02-26T13:24:46;3.43;;;3.00;;
2558;SDS011;1289;53.488;10.006;2023-02-26T13:27:15;3.63;;;3.20;;
2558;SDS011;1289;53.488;10.006;2023-02-26T13:29:43;4.00;;;3.20;;
2558;SDS011;1289;53.488;10.006;2023-02-26T13:32:13;4.60;;;3.40;;
2558;SDS011;1289;53.488;10.006;2023-02-26T13:34:42;4.30;;;2.80;;
2558;SDS011;1289;53.488;10.006;2023-02-26T13:37:16;3.37;;;3.07;;
2558;SDS011;1289;53.488;10.006;2023-02-26T13:39:49;4.47;;;3.40;;
2558;SDS011;1289;53.488;10.006;2023-02-26T13:42:25;3.80;;;3.40;;
2558;SDS011;1289;53.488;10.006;2023-02-26T13:45:01;5.40;;;3.57;;
2558;SDS011;1289;53.488;10.006;2023-02-26T13:47:38;4.17;;;3.77;;
2558;SDS011;1289;53.488;10.006;2023-02-26T13:50:15;3.23;;;2.93;;
2558;SDS011;1289;53.488;10.006;2023-02-26T13:52:54;4.57;;;3.43;;
2558;SDS011;1289;53.488;10.006;2023-02-26T14:01:03;6.97;;;3.37;;
2558;SDS011;1289;53.488;10.006;2023-02-26T14:03:34;4.10;;;2.77;;
2558;SDS011;1289;53.488;10.006;2023-02-26T14:06:18;3.40;;;3.10;;
2558;SDS011;1289;53.488;10.006;2023-02-26T14:08:49;3.50;;;3.00;;
2558;SDS011;1289;53.488;10.006;2023-02-26T14:14:13;3.80;;;3.50;;
2558;SDS011;1289;53.488;10.006;2023-02-26T14:16:47;5.60;;;3.30;;
2558;SDS011;1289;53.488;10.006;2023-02-26T14:19:20;3.10;;;2.80;;
2558;SDS011;1289;53.488;10.006;2023-02-26T14:21:49;3.13;;;2.70;;
2558;SDS011;1289;53.488;10.006;2023-02-26T14:24:18;5.00;;;3.70;;
2558;SDS011;1289;53.488;10.006;2023-02-26T14:26:49;3.20;;;3.00;;
2558;SDS011;1289;53.488;10.006;2023-02-26T14:29:22;3.07;;;2.80;;
2558;SDS011;1289;53.488;10.006;2023-02-26T14:32:02;4.23;;;2.90;;
2558;SDS011;1289;53.488;10.006;2023-02-26T14:34:31;5.30;;;3.43;;
2558;SDS011;1289;53.488;10.006;2023-02-26T14:37:01;4.10;;;3.13;;
2558;SDS011;1289;53.488;10.006;2023-02-26T14:39:34;3.00;;;2.80;;
2558;SDS011;1289;53.488;10.006;2023-02-26T14:42:04;2.90;;;2.70;;
2558;SDS011;1289;53.488;10.006;2023-02-26T14:44:34;3.27;;;2.97;;
2558;SDS011;1289;53.488;10.006;2023-02-26T14:47:02;4.73;;;2.83;;
2558;SDS011;1289;53.488;10.006;2023-02-26T14:49:30;3.17;;;2.57;;
2558;SDS011;1289;53.488;10.006;2023-02-26T14:52:03;3.37;;;3.07;;
2558;SDS011;1289;53.488;10.006;2023-02-26T14:54:40;4.73;;;2.77;;
2558;SDS011;1289;53.488;10.006;2023-02-26T14:57:16;3.67;;;3.17;;
2558;SDS011;1289;53.488;10.006;2023-02-26T14:59:53;4.40;;;3.13;;
2558;SDS011;1289;53.488;10.006;2023-02-26T15:02:39;2.93;;;2.60;;
2558;SDS011;1289;53.488;10.006;2023-02-26T15:05:20;2.90;;;2.70;;
2558;SDS011;1289;53.488;10.006;2023-02-26T15:08:19;2.87;;;2.67;;
2558;SDS011;1289;53.488;10.006;2023-02-26T15:11:03;2.87;;;2.60;;
2558;SDS011;1289;53.488;10.006;2023-02-26T15:13:48;3.80;;;2.90;;
2558;SDS011;1289;53.488;10.006;2023-02-26T15:16:26;3.20;;;3.00;;
2558;SDS011;1289;53.488;10.006;2023-02-26T15:19:01;2.87;;;2.67;;
2558;SDS011;1289;53.488;10.006;2023-02-26T15:21:38;3.27;;;3.00;;
2558;SDS011;1289;53.488;10.006;2023-02-26T15:24:12;2.90;;;2.70;;
2558;SDS011;1289;53.488;10.006;2023-02-26T15:26:41;7.30;;;3.07;;
2558;SDS011;1289;53.488;10.006;2023-02-26T15:29:13;4.30;;;3.10;;
2558;SDS011;1289;53.488;10.006;2023-02-26T15:31:41;3.70;;;3.10;;
2558;SDS011;1289;53.488;10.006;2023-02-26T15:34:09;4.70;;;3.13;;
2558;SDS011;1289;53.488;10.006;2023-02-26T15:36:38;3.63;;;3.20;;
2558;SDS011;1289;53.488;10.006;2023-02-26T15:39:08;4.20;;;3.80;;
2558;SDS011;1289;53.488;10.006;2023-02-26T15:41:35;4.53;;;3.50;;
2558;SDS011;1289;53.488;10.006;2023-02-26T15:44:05;3.73;;;3.43;;
2558;SDS011;1289;53.488;10.006;2023-02-26T15:46:36;3.47;;;3.07;;
2558;SDS011;1289;53.488;10.006;2023-02-26T15:49:05;5.83;;;3.20;;